sensor_id;sensor_type;location;lat;lon;timestamp;P1;durP1;ratioP1;P2;durP2;ratioP2
5303;SDS011;2674;49.722;10.892;2024-03-17T00:00:23;2.40;;;2.03;;
5303;SDS011;2674;49.722;10.892;2024-03-17T00:02:49;2.50;;;1.80;;
5303;SDS011;2674;49.722;10.892;2024-03-17T00:05:15;3.17;;;2.10;;
5303;SDS011;2674;49.722;10.892;2024-03-17T00:07:43;2.80;;;2.00;;
5303;SDS011;2674;49.722;10.892;2024-03-17T00:10:09;2.50;;;1.33;;
5303;SDS011;2674;49.722;10.892;2024-03-17T00:12:35;2.20;;;1.67;;
5303;SDS011;2674;49.722;10.892;2024-03-17T00:15:02;2.13;;;1.70;;
5303;SDS011;2674;49.722;10.892;2024-03-17T00:17:29;2.90;;;1.60;;
5303;SDS011;2674;49.722;10.892;2024-03-17T00:19:54;2.10;;;1.73;;
5303;SDS011;2674;49.722;10.892;2024-03-17T00:22:20;1.93;;;1.70;;
5303;SDS011;2674;49.722;10.892;2024-03-17T00:24:46;3.00;;;2.07;;
5303;SDS011;2674;49.722;10.892;2024-03-17T00:27:12;3.73;;;2.43;;
5303;SDS011;2674;49.722;10.892;2024-03-17T00:29:38;2.70;;;2.50;;
5303;SDS011;2674;49.722;10.892;2024-03-17T00:32:04;15.13;;;2.67;;
5303;SDS011;2674;49.722;10.892;2024-03-17T00:34:31;3.87;;;2.70;;
5303;SDS011;2674;49.722;10.892;2024-03-17T00:36:57;3.43;;;2.87;;
5303;SDS011;2674;49.722;10.892;2024-03-17T00:39:24;4.20;;;2.40;;
5303;SDS011;2674;49.722;10.892;2024-03-17T00:41:50;2.60;;;2.40;;
5303;SDS011;2674;49.722;10.892;2024-03-17T00:44:16;5.67;;;2.73;;
5303;SDS011;2674;49.722;10.892;2024-03-17T00:46:42;4.57;;;2.73;;
5303;SDS011;2674;49.722;10.892;2024-03-17T00:49:12;3.43;;;2.70;;
5303;SDS011;2674;49.722;10.892;2024-03-17T00:51:38;4.40;;;3.00;;
5303;SDS011;2674;49.722;10.892;2024-03-17T00:54:04;5.93;;;2.70;;
5303;SDS011;2674;49.722;10.892;2024-03-17T00:56:29;2.50;;;2.30;;
5303;SDS011;2674;49.722;10.892;2024-03-17T00:58:56;3.13;;;2.10;;
5303;SDS011;2674;49.722;10.892;2024-03-17T01:01:22;2.60;;;2.40;;
5303;SDS011;2674;49.722;10.892;2024-03-17T01:03:48;4.60;;;2.90;;
5303;SDS011;2674;49.722;10.892;2024-03-17T01:06:14;3.73;;;2.60;;
5303;SDS011;2674;49.722;10.892;2024-03-17T01:08:40;3.33;;;2.57;;
5303;SDS011;2674;49.722;10.892;2024-03-17T01:11:06;3.30;;;3.00;;
5303;SDS011;2674;49.722;10.892;2024-03-17T01:13:34;9.93;;;3.17;;
5303;SDS011;2674;49.722;10.892;2024-03-17T01:16:06;2.63;;;2.43;;
5303;SDS011;2674;49.722;10.892;2024-03-17T01:18:32;2.57;;;2.37;;
5303;SDS011;2674;49.722;10.892;2024-03-17T01:20:59;2.80;;;2.60;;
5303;SDS011;2674;49.722;10.892;2024-03-17T01:23:25;3.77;;;2.70;;
5303;SDS011;2674;49.722;10.892;2024-03-17T01:25:50;4.40;;;3.10;;
5303;SDS011;2674;49.722;10.892;2024-03-17T01:28:16;2.57;;;2.13;;
5303;SDS011;2674;49.722;10.892;2024-03-17T01:30:42;6.13;;;2.57;;
5303;SDS011;2674;49.722;10.892;2024-03-17T01:33:08;3.40;;;2.50;;
5303;SDS011;2674;49.722;10.892;2024-03-17T01:35:35;2.77;;;2.43;;
5303;SDS011;2674;49.722;10.892;2024-03-17T01:38:01;3.60;;;2.37;;
5303;SDS011;2674;49.722;10.892;2024-03-17T01:40:27;10.20;;;2.87;;
5303;SDS011;2674;49.722;10.892;2024-03-17T01:42:52;3.50;;;2.40;;
5303;SDS011;2674;49.722;10.892;2024-03-17T01:45:20;2.73;;;2.23;;
5303;SDS011;2674;49.722;10.892;2024-03-17T01:47:51;2.37;;;2.27;;
5303;SDS011;2674;49.722;10.892;2024-03-17T01:50:18;3.37;;;2.90;;
5303;SDS011;2674;49.722;10.892;2024-03-17T01:52:50;2.70;;;2.50;;
5303;SDS011;2674;49.722;10.892;2024-03-17T01:55:18;3.10;;;2.80;;
5303;SDS011;2674;49.722;10.892;2024-03-17T01:57:47;4.40;;;3.63;;
5303;SDS011;2674;49.722;10.892;2024-03-17T02:00:15;2.77;;;2.57;;
5303;SDS011;2674;49.722;10.892;2024-03-17T02:02:44;4.43;;;2.80;;
5303;SDS011;2674;49.722;10.892;2024-03-17T02:05:09;4.57;;;4.03;;
5303;SDS011;2674;49.722;10.892;2024-03-17T02:07:36;4.97;;;3.73;;
5303;SDS011;2674;49.722;10.892;2024-03-17T02:10:02;5.27;;;3.60;;
5303;SDS011;2674;49.722;10.892;2024-03-17T02:12:31;6.20;;;3.83;;
5303;SDS011;2674;49.722;10.892;2024-03-17T02:15:00;4.57;;;3.07;;
5303;SDS011;2674;49.722;10.892;2024-03-17T02:17:30;3.40;;;3.07;;
5303;SDS011;2674;49.722;10.892;2024-03-17T02:19:59;4.40;;;3.73;;
5303;SDS011;2674;49.722;10.892;2024-03-17T02:22:26;7.07;;;3.27;;
5303;SDS011;2674;49.722;10.892;2024-03-17T02:24:55;3.40;;;3.10;;
5303;SDS011;2674;49.722;10.892;2024-03-17T02:27:21;3.80;;;3.17;;
5303;SDS011;2674;49.722;10.892;2024-03-17T02:29:47;5.37;;;3.70;;
5303;SDS011;2674;49.722;10.892;2024-03-17T02:32:12;4.30;;;3.13;;
5303;SDS011;2674;49.722;10.892;2024-03-17T02:34:38;6.03;;;3.60;;
5303;SDS011;2674;49.722;10.892;2024-03-17T02:37:04;3.53;;;3.13;;
5303;SDS011;2674;49.722;10.892;2024-03-17T02:39:32;4.60;;;3.63;;
5303;SDS011;2674;49.722;10.892;2024-03-17T02:42:08;3.73;;;3.30;;
5303;SDS011;2674;49.722;10.892;2024-03-17T02:44:36;5.23;;;3.00;;
5303;SDS011;2674;49.722;10.892;2024-03-17T02:47:03;3.57;;;3.27;;
5303;SDS011;2674;49.722;10.892;2024-03-17T02:49:31;4.13;;;3.50;;
5303;SDS011;2674;49.722;10.892;2024-03-17T02:52:01;3.30;;;3.10;;
5303;SDS011;2674;49.722;10.892;2024-03-17T02:54:31;4.43;;;2.90;;
5303;SDS011;2674;49.722;10.892;2024-03-17T02:57:00;13.20;;;3.53;;
5303;SDS011;2674;49.722;10.892;2024-03-17T02:59:26;5.03;;;4.10;;
5303;SDS011;2674;49.722;10.892;2024-03-17T03:01:52;5.57;;;2.90;;
5303;SDS011;2674;49.722;10.892;2024-03-17T03:04:19;4.10;;;3.60;;
5303;SDS011;2674;49.722;10.892;2024-03-17T03:06:45;5.73;;;3.40;;
5303;SDS011;2674;49.722;10.892;2024-03-17T03:09:11;10.30;;;2.90;;
5303;SDS011;2674;49.722;10.892;2024-03-17T03:11:45;3.73;;;2.80;;
5303;SDS011;2674;49.722;10.892;2024-03-17T03:14:12;9.63;;;3.37;;
5303;SDS011;2674;49.722;10.892;2024-03-17T03:16:38;3.80;;;3.47;;
5303;SDS011;2674;49.722;10.892;2024-03-17T03:19:04;3.70;;;3.40;;
5303;SDS011;2674;49.722;10.892;2024-03-17T03:21:30;5.30;;;3.40;;
5303;SDS011;2674;49.722;10.892;2024-03-17T03:23:56;4.37;;;3.67;;
5303;SDS011;2674;49.722;10.892;2024-03-17T03:26:22;4.13;;;3.07;;
5303;SDS011;2674;49.722;10.892;2024-03-17T03:28:51;4.80;;;3.67;;
5303;SDS011;2674;49.722;10.892;2024-03-17T03:31:19;7.60;;;3.40;;
5303;SDS011;2674;49.722;10.892;2024-03-17T03:33:44;3.67;;;3.27;;
5303;SDS011;2674;49.722;10.892;2024-03-17T03:36:11;4.20;;;3.60;;
5303;SDS011;2674;49.722;10.892;2024-03-17T03:38:38;4.70;;;3.63;;
5303;SDS011;2674;49.722;10.892;2024-03-17T03:41:13;5.40;;;4.13;;
5303;SDS011;2674;49.722;10.892;2024-03-17T03:43:39;4.50;;;2.90;;
5303;SDS011;2674;49.722;10.892;2024-03-17T03:46:06;4.50;;;3.40;;
5303;SDS011;2674;49.722;10.892;2024-03-17T03:48:32;5.10;;;3.47;;
5303;SDS011;2674;49.722;10.892;2024-03-17T03:51:08;6.40;;;4.30;;
5303;SDS011;2674;49.722;10.892;2024-03-17T03:53:34;4.77;;;3.20;;
5303;SDS011;2674;49.722;10.892;2024-03-17T03:56:02;4.33;;;3.93;;
5303;SDS011;2674;49.722;10.892;2024-03-17T03:58:34;7.10;;;3.23;;
5303;SDS011;2674;49.722;10.892;2024-03-17T04:01:04;5.40;;;3.70;;
5303;SDS011;2674;49.722;10.892;2024-03-17T04:03:32;3.30;;;3.00;;
5303;SDS011;2674;49.722;10.892;2024-03-17T04:06:08;3.87;;;2.93;;
5303;SDS011;2674;49.722;10.892;2024-03-17T04:08:36;6.00;;;3.70;;
5303;SDS011;2674;49.722;10.892;2024-03-17T04:11:02;7.03;;;3.87;;
5303;SDS011;2674;49.722;10.892;2024-03-17T04:13:29;5.27;;;2.80;;
5303;SDS011;2674;49.722;10.892;2024-03-17T04:15:56;5.23;;;3.17;;
5303;SDS011;2674;49.722;10.892;2024-03-17T04:18:24;5.13;;;2.90;;
5303;SDS011;2674;49.722;10.892;2024-03-17T04:20:56;4.17;;;2.93;;
5303;SDS011;2674;49.722;10.892;2024-03-17T04:23:23;7.90;;;3.43;;
5303;SDS011;2674;49.722;10.892;2024-03-17T04:25:49;3.83;;;2.90;;
5303;SDS011;2674;49.722;10.892;2024-03-17T04:28:16;4.03;;;3.50;;
5303;SDS011;2674;49.722;10.892;2024-03-17T04:30:42;7.97;;;3.17;;
5303;SDS011;2674;49.722;10.892;2024-03-17T04:33:09;6.70;;;2.80;;
5303;SDS011;2674;49.722;10.892;2024-03-17T04:35:36;3.73;;;3.13;;
5303;SDS011;2674;49.722;10.892;2024-03-17T04:38:06;2.73;;;2.53;;
5303;SDS011;2674;49.722;10.892;2024-03-17T04:40:32;4.17;;;3.77;;
5303;SDS011;2674;49.722;10.892;2024-03-17T04:42:59;5.00;;;3.30;;
5303;SDS011;2674;49.722;10.892;2024-03-17T04:45:25;4.50;;;3.30;;
5303;SDS011;2674;49.722;10.892;2024-03-17T04:47:51;4.53;;;3.70;;
5303;SDS011;2674;49.722;10.892;2024-03-17T04:50:17;3.43;;;3.10;;
5303;SDS011;2674;49.722;10.892;2024-03-17T04:52:44;9.83;;;3.37;;
5303;SDS011;2674;49.722;10.892;2024-03-17T04:55:10;3.00;;;2.77;;
5303;SDS011;2674;49.722;10.892;2024-03-17T04:57:35;4.33;;;3.13;;
5303;SDS011;2674;49.722;10.892;2024-03-17T05:00:02;5.10;;;3.00;;
5303;SDS011;2674;49.722;10.892;2024-03-17T05:02:32;7.00;;;2.33;;
5303;SDS011;2674;49.722;10.892;2024-03-17T05:04:58;4.27;;;3.00;;
5303;SDS011;2674;49.722;10.892;2024-03-17T05:07:24;5.00;;;3.27;;
5303;SDS011;2674;49.722;10.892;2024-03-17T05:09:50;11.33;;;3.60;;
5303;SDS011;2674;49.722;10.892;2024-03-17T05:12:16;4.13;;;3.10;;
5303;SDS011;2674;49.722;10.892;2024-03-17T05:14:41;6.50;;;2.70;;
5303;SDS011;2674;49.722;10.892;2024-03-17T05:17:07;4.10;;;3.70;;
5303;SDS011;2674;49.722;10.892;2024-03-17T05:19:33;3.70;;;3.07;;
5303;SDS011;2674;49.722;10.892;2024-03-17T05:21:59;3.60;;;3.00;;
5303;SDS011;2674;49.722;10.892;2024-03-17T05:24:25;3.40;;;2.90;;
5303;SDS011;2674;49.722;10.892;2024-03-17T05:26:51;4.03;;;3.63;;
5303;SDS011;2674;49.722;10.892;2024-03-17T05:29:17;4.87;;;3.57;;
5303;SDS011;2674;49.722;10.892;2024-03-17T05:31:42;4.80;;;3.20;;
5303;SDS011;2674;49.722;10.892;2024-03-17T05:34:08;6.03;;;3.43;;
5303;SDS011;2674;49.722;10.892;2024-03-17T05:36:35;3.37;;;3.07;;
5303;SDS011;2674;49.722;10.892;2024-03-17T05:39:02;3.33;;;3.10;;
5303;SDS011;2674;49.722;10.892;2024-03-17T05:41:28;4.40;;;4.00;;
5303;SDS011;2674;49.722;10.892;2024-03-17T05:43:54;6.60;;;3.10;;
5303;SDS011;2674;49.722;10.892;2024-03-17T05:46:23;4.30;;;3.70;;
5303;SDS011;2674;49.722;10.892;2024-03-17T05:48:53;3.97;;;3.13;;
5303;SDS011;2674;49.722;10.892;2024-03-17T05:51:19;3.77;;;3.23;;
5303;SDS011;2674;49.722;10.892;2024-03-17T05:53:45;9.83;;;3.57;;
5303;SDS011;2674;49.722;10.892;2024-03-17T05:56:11;4.93;;;3.50;;
5303;SDS011;2674;49.722;10.892;2024-03-17T05:58:38;6.83;;;4.10;;
5303;SDS011;2674;49.722;10.892;2024-03-17T06:01:04;7.30;;;4.40;;
5303;SDS011;2674;49.722;10.892;2024-03-17T06:03:32;4.13;;;3.67;;
5303;SDS011;2674;49.722;10.892;2024-03-17T06:06:01;9.33;;;3.27;;
5303;SDS011;2674;49.722;10.892;2024-03-17T06:08:28;4.60;;;3.00;;
5303;SDS011;2674;49.722;10.892;2024-03-17T06:10:55;6.90;;;3.70;;
5303;SDS011;2674;49.722;10.892;2024-03-17T06:13:23;5.60;;;3.57;;
5303;SDS011;2674;49.722;10.892;2024-03-17T06:15:49;6.33;;;3.20;;
5303;SDS011;2674;49.722;10.892;2024-03-17T06:18:15;3.87;;;3.57;;
5303;SDS011;2674;49.722;10.892;2024-03-17T06:20:46;4.27;;;3.87;;
5303;SDS011;2674;49.722;10.892;2024-03-17T06:23:13;6.53;;;4.57;;
5303;SDS011;2674;49.722;10.892;2024-03-17T06:25:43;5.73;;;4.00;;
5303;SDS011;2674;49.722;10.892;2024-03-17T06:28:11;6.50;;;4.90;;
5303;SDS011;2674;49.722;10.892;2024-03-17T06:33:12;5.53;;;4.73;;
5303;SDS011;2674;49.722;10.892;2024-03-17T06:35:38;5.83;;;4.33;;
5303;SDS011;2674;49.722;10.892;2024-03-17T06:38:05;4.50;;;4.10;;
5303;SDS011;2674;49.722;10.892;2024-03-17T06:40:35;4.97;;;3.70;;
5303;SDS011;2674;49.722;10.892;2024-03-17T06:43:04;6.20;;;4.17;;
5303;SDS011;2674;49.722;10.892;2024-03-17T06:45:31;5.80;;;4.03;;
5303;SDS011;2674;49.722;10.892;2024-03-17T06:47:57;5.17;;;3.43;;
5303;SDS011;2674;49.722;10.892;2024-03-17T06:50:23;8.17;;;4.10;;
5303;SDS011;2674;49.722;10.892;2024-03-17T06:52:49;7.13;;;3.80;;
5303;SDS011;2674;49.722;10.892;2024-03-17T06:55:17;4.40;;;3.10;;
5303;SDS011;2674;49.722;10.892;2024-03-17T06:57:43;4.20;;;3.70;;
5303;SDS011;2674;49.722;10.892;2024-03-17T07:00:10;6.80;;;4.50;;
5303;SDS011;2674;49.722;10.892;2024-03-17T07:02:40;4.63;;;4.23;;
5303;SDS011;2674;49.722;10.892;2024-03-17T07:05:07;3.87;;;3.40;;
5303;SDS011;2674;49.722;10.892;2024-03-17T07:07:32;3.53;;;3.27;;
5303;SDS011;2674;49.722;10.892;2024-03-17T07:09:59;6.70;;;3.57;;
5303;SDS011;2674;49.722;10.892;2024-03-17T07:12:30;5.03;;;3.60;;
5303;SDS011;2674;49.722;10.892;2024-03-17T07:14:55;3.50;;;3.20;;
5303;SDS011;2674;49.722;10.892;2024-03-17T07:17:21;4.90;;;4.00;;
5303;SDS011;2674;49.722;10.892;2024-03-17T07:19:47;8.00;;;3.80;;
5303;SDS011;2674;49.722;10.892;2024-03-17T07:22:14;4.20;;;3.57;;
5303;SDS011;2674;49.722;10.892;2024-03-17T07:24:40;8.97;;;4.13;;
5303;SDS011;2674;49.722;10.892;2024-03-17T07:27:08;5.00;;;3.23;;
5303;SDS011;2674;49.722;10.892;2024-03-17T07:29:38;3.83;;;3.43;;
5303;SDS011;2674;49.722;10.892;2024-03-17T07:32:07;5.50;;;4.10;;
5303;SDS011;2674;49.722;10.892;2024-03-17T07:34:33;8.80;;;3.80;;
5303;SDS011;2674;49.722;10.892;2024-03-17T07:37:00;5.60;;;4.37;;
5303;SDS011;2674;49.722;10.892;2024-03-17T07:39:28;3.80;;;3.03;;
5303;SDS011;2674;49.722;10.892;2024-03-17T07:42:01;6.63;;;3.70;;
5303;SDS011;2674;49.722;10.892;2024-03-17T07:44:27;4.10;;;3.70;;
5303;SDS011;2674;49.722;10.892;2024-03-17T07:46:58;3.60;;;3.30;;
5303;SDS011;2674;49.722;10.892;2024-03-17T07:49:25;7.53;;;4.00;;
5303;SDS011;2674;49.722;10.892;2024-03-17T07:51:50;5.07;;;4.10;;
5303;SDS011;2674;49.722;10.892;2024-03-17T07:54:16;4.20;;;3.70;;
5303;SDS011;2674;49.722;10.892;2024-03-17T07:56:44;7.30;;;4.30;;
5303;SDS011;2674;49.722;10.892;2024-03-17T07:59:11;5.33;;;4.30;;
5303;SDS011;2674;49.722;10.892;2024-03-17T08:01:41;6.80;;;4.50;;
5303;SDS011;2674;49.722;10.892;2024-03-17T08:04:07;6.07;;;4.07;;
5303;SDS011;2674;49.722;10.892;2024-03-17T08:06:33;7.53;;;4.60;;
5303;SDS011;2674;49.722;10.892;2024-03-17T08:08:59;7.27;;;4.57;;
5303;SDS011;2674;49.722;10.892;2024-03-17T08:11:25;5.33;;;4.13;;
5303;SDS011;2674;49.722;10.892;2024-03-17T08:13:50;5.10;;;3.70;;
5303;SDS011;2674;49.722;10.892;2024-03-17T08:16:16;5.57;;;4.57;;
5303;SDS011;2674;49.722;10.892;2024-03-17T08:18:42;4.70;;;4.30;;
5303;SDS011;2674;49.722;10.892;2024-03-17T08:21:08;5.00;;;3.90;;
5303;SDS011;2674;49.722;10.892;2024-03-17T08:23:34;7.30;;;3.53;;
5303;SDS011;2674;49.722;10.892;2024-03-17T08:26:04;6.83;;;4.30;;
5303;SDS011;2674;49.722;10.892;2024-03-17T08:28:33;4.50;;;3.87;;
5303;SDS011;2674;49.722;10.892;2024-03-17T08:31:02;7.80;;;4.00;;
5303;SDS011;2674;49.722;10.892;2024-03-17T08:33:29;8.33;;;4.23;;
5303;SDS011;2674;49.722;10.892;2024-03-17T08:36:05;8.57;;;3.70;;
5303;SDS011;2674;49.722;10.892;2024-03-17T08:38:32;7.23;;;4.20;;
5303;SDS011;2674;49.722;10.892;2024-03-17T08:41:06;4.90;;;4.27;;
5303;SDS011;2674;49.722;10.892;2024-03-17T08:43:34;6.20;;;4.10;;
5303;SDS011;2674;49.722;10.892;2024-03-17T08:46:04;4.93;;;3.70;;
5303;SDS011;2674;49.722;10.892;2024-03-17T08:48:35;4.10;;;3.60;;
5303;SDS011;2674;49.722;10.892;2024-03-17T08:51:02;4.30;;;3.50;;
5303;SDS011;2674;49.722;10.892;2024-03-17T08:53:29;6.00;;;3.97;;
5303;SDS011;2674;49.722;10.892;2024-03-17T08:55:55;4.40;;;4.00;;
5303;SDS011;2674;49.722;10.892;2024-03-17T08:58:22;6.23;;;3.73;;
5303;SDS011;2674;49.722;10.892;2024-03-17T09:00:48;5.40;;;3.43;;
5303;SDS011;2674;49.722;10.892;2024-03-17T09:03:14;4.53;;;3.20;;
5303;SDS011;2674;49.722;10.892;2024-03-17T09:05:41;3.83;;;3.47;;
5303;SDS011;2674;49.722;10.892;2024-03-17T09:08:16;3.80;;;3.40;;
5303;SDS011;2674;49.722;10.892;2024-03-17T09:10:45;5.17;;;3.30;;
5303;SDS011;2674;49.722;10.892;2024-03-17T09:13:13;4.53;;;3.80;;
5303;SDS011;2674;49.722;10.892;2024-03-17T09:15:40;3.80;;;3.40;;
5303;SDS011;2674;49.722;10.892;2024-03-17T09:18:14;8.20;;;4.30;;
5303;SDS011;2674;49.722;10.892;2024-03-17T09:20:40;8.53;;;3.63;;
5303;SDS011;2674;49.722;10.892;2024-03-17T09:23:07;4.27;;;3.80;;
5303;SDS011;2674;49.722;10.892;2024-03-17T09:25:33;3.70;;;3.40;;
5303;SDS011;2674;49.722;10.892;2024-03-17T09:27:58;5.30;;;3.70;;
5303;SDS011;2674;49.722;10.892;2024-03-17T09:30:24;5.00;;;4.03;;
5303;SDS011;2674;49.722;10.892;2024-03-17T09:32:50;5.90;;;3.50;;
5303;SDS011;2674;49.722;10.892;2024-03-17T09:35:16;5.67;;;4.43;;
5303;SDS011;2674;49.722;10.892;2024-03-17T09:37:41;5.27;;;4.80;;
5303;SDS011;2674;49.722;10.892;2024-03-17T09:40:12;3.67;;;3.33;;
5303;SDS011;2674;49.722;10.892;2024-03-17T09:42:40;3.53;;;3.20;;
5303;SDS011;2674;49.722;10.892;2024-03-17T09:45:08;8.60;;;3.83;;
5303;SDS011;2674;49.722;10.892;2024-03-17T09:47:35;5.20;;;3.03;;
5303;SDS011;2674;49.722;10.892;2024-03-17T09:50:01;4.20;;;3.40;;
5303;SDS011;2674;49.722;10.892;2024-03-17T09:52:28;6.03;;;2.93;;
5303;SDS011;2674;49.722;10.892;2024-03-17T09:54:59;4.30;;;3.60;;
5303;SDS011;2674;49.722;10.892;2024-03-17T09:57:26;5.47;;;3.30;;
5303;SDS011;2674;49.722;10.892;2024-03-17T09:59:54;3.40;;;3.10;;
5303;SDS011;2674;49.722;10.892;2024-03-17T10:02:21;4.23;;;3.90;;
5303;SDS011;2674;49.722;10.892;2024-03-17T10:04:47;4.13;;;3.27;;
5303;SDS011;2674;49.722;10.892;2024-03-17T10:07:14;4.43;;;4.03;;
5303;SDS011;2674;49.722;10.892;2024-03-17T10:09:41;6.40;;;4.00;;
5303;SDS011;2674;49.722;10.892;2024-03-17T10:12:28;5.30;;;3.87;;
5303;SDS011;2674;49.722;10.892;2024-03-17T10:15:01;7.70;;;4.40;;
5303;SDS011;2674;49.722;10.892;2024-03-17T10:17:33;3.80;;;3.50;;
5303;SDS011;2674;49.722;10.892;2024-03-17T10:22:57;3.43;;;3.13;;
5303;SDS011;2674;49.722;10.892;2024-03-17T10:25:48;4.93;;;3.80;;
5303;SDS011;2674;49.722;10.892;2024-03-17T10:28:14;4.90;;;3.83;;
5303;SDS011;2674;49.722;10.892;2024-03-17T10:30:42;4.10;;;3.50;;
5303;SDS011;2674;49.722;10.892;2024-03-17T10:33:25;4.60;;;3.77;;
5303;SDS011;2674;49.722;10.892;2024-03-17T10:35:58;4.67;;;3.13;;
5303;SDS011;2674;49.722;10.892;2024-03-17T10:38:26;4.10;;;3.70;;
5303;SDS011;2674;49.722;10.892;2024-03-17T10:40:53;4.03;;;3.73;;
5303;SDS011;2674;49.722;10.892;2024-03-17T10:43:19;7.00;;;4.20;;
5303;SDS011;2674;49.722;10.892;2024-03-17T10:45:50;4.60;;;3.70;;
5303;SDS011;2674;49.722;10.892;2024-03-17T10:48:19;5.10;;;3.73;;
5303;SDS011;2674;49.722;10.892;2024-03-17T10:50:47;3.70;;;3.40;;
5303;SDS011;2674;49.722;10.892;2024-03-17T10:53:15;3.30;;;3.00;;
5303;SDS011;2674;49.722;10.892;2024-03-17T10:55:51;4.20;;;3.50;;
5303;SDS011;2674;49.722;10.892;2024-03-17T10:58:34;7.93;;;4.33;;
5303;SDS011;2674;49.722;10.892;2024-03-17T11:01:07;5.67;;;3.97;;
5303;SDS011;2674;49.722;10.892;2024-03-17T11:03:38;3.63;;;3.17;;
5303;SDS011;2674;49.722;10.892;2024-03-17T11:06:08;5.10;;;4.60;;
5303;SDS011;2674;49.722;10.892;2024-03-17T11:08:35;4.33;;;3.90;;
5303;SDS011;2674;49.722;10.892;2024-03-17T11:11:03;3.70;;;3.40;;
5303;SDS011;2674;49.722;10.892;2024-03-17T11:13:30;4.80;;;3.47;;
5303;SDS011;2674;49.722;10.892;2024-03-17T11:15:57;7.83;;;4.20;;
5303;SDS011;2674;49.722;10.892;2024-03-17T11:23:26;5.20;;;4.33;;
5303;SDS011;2674;49.722;10.892;2024-03-17T11:25:54;4.83;;;3.80;;
5303;SDS011;2674;49.722;10.892;2024-03-17T11:34:54;5.80;;;4.60;;
5303;SDS011;2674;49.722;10.892;2024-03-17T11:36:55;6.53;;;4.53;;
5303;SDS011;2674;49.722;10.892;2024-03-17T11:39:21;3.80;;;3.50;;
5303;SDS011;2674;49.722;10.892;2024-03-17T11:42:24;5.70;;;3.80;;
5303;SDS011;2674;49.722;10.892;2024-03-17T11:45:09;10.90;;;7.30;;
5303;SDS011;2674;49.722;10.892;2024-03-17T11:47:41;9.23;;;6.13;;
5303;SDS011;2674;49.722;10.892;2024-03-17T11:50:08;9.40;;;4.60;;
5303;SDS011;2674;49.722;10.892;2024-03-17T11:52:36;7.13;;;4.80;;
5303;SDS011;2674;49.722;10.892;2024-03-17T11:55:02;6.17;;;4.10;;
5303;SDS011;2674;49.722;10.892;2024-03-17T11:57:28;4.43;;;3.80;;
5303;SDS011;2674;49.722;10.892;2024-03-17T11:59:55;5.43;;;4.27;;
5303;SDS011;2674;49.722;10.892;2024-03-17T12:04:52;10.77;;;5.40;;
5303;SDS011;2674;49.722;10.892;2024-03-17T12:07:20;8.33;;;4.13;;
5303;SDS011;2674;49.722;10.892;2024-03-17T12:09:49;5.60;;;4.17;;
5303;SDS011;2674;49.722;10.892;2024-03-17T12:12:20;5.53;;;3.23;;
5303;SDS011;2674;49.722;10.892;2024-03-17T12:14:48;5.53;;;4.10;;
5303;SDS011;2674;49.722;10.892;2024-03-17T12:17:19;6.00;;;4.57;;
5303;SDS011;2674;49.722;10.892;2024-03-17T12:19:46;5.17;;;4.20;;
5303;SDS011;2674;49.722;10.892;2024-03-17T12:22:22;5.17;;;4.00;;
5303;SDS011;2674;49.722;10.892;2024-03-17T12:24:53;4.93;;;4.43;;
5303;SDS011;2674;49.722;10.892;2024-03-17T12:27:25;6.07;;;4.60;;
5303;SDS011;2674;49.722;10.892;2024-03-17T12:29:55;4.83;;;3.90;;
5303;SDS011;2674;49.722;10.892;2024-03-17T12:32:22;6.43;;;4.93;;
5303;SDS011;2674;49.722;10.892;2024-03-17T12:34:52;5.20;;;3.90;;
5303;SDS011;2674;49.722;10.892;2024-03-17T12:37:20;5.13;;;4.37;;
5303;SDS011;2674;49.722;10.892;2024-03-17T12:39:47;7.20;;;4.43;;
5303;SDS011;2674;49.722;10.892;2024-03-17T12:42:14;6.83;;;4.47;;
5303;SDS011;2674;49.722;10.892;2024-03-17T12:44:52;4.47;;;4.07;;
5303;SDS011;2674;49.722;10.892;2024-03-17T12:47:23;6.00;;;5.00;;
5303;SDS011;2674;49.722;10.892;2024-03-17T12:49:54;4.77;;;4.20;;
5303;SDS011;2674;49.722;10.892;2024-03-17T12:52:27;5.67;;;4.53;;
5303;SDS011;2674;49.722;10.892;2024-03-17T12:54:58;7.73;;;4.10;;
5303;SDS011;2674;49.722;10.892;2024-03-17T12:57:46;6.97;;;4.03;;
5303;SDS011;2674;49.722;10.892;2024-03-17T13:00:34;6.57;;;4.40;;
5303;SDS011;2674;49.722;10.892;2024-03-17T13:03:04;7.30;;;4.03;;
5303;SDS011;2674;49.722;10.892;2024-03-17T13:05:40;6.20;;;3.87;;
5303;SDS011;2674;49.722;10.892;2024-03-17T13:08:12;5.17;;;4.30;;
5303;SDS011;2674;49.722;10.892;2024-03-17T13:10:38;5.27;;;4.43;;
5303;SDS011;2674;49.722;10.892;2024-03-17T13:13:04;5.50;;;4.43;;
5303;SDS011;2674;49.722;10.892;2024-03-17T13:15:32;4.47;;;3.80;;
5303;SDS011;2674;49.722;10.892;2024-03-17T13:18:01;6.97;;;5.17;;
5303;SDS011;2674;49.722;10.892;2024-03-17T13:20:29;4.77;;;4.00;;
5303;SDS011;2674;49.722;10.892;2024-03-17T13:22:55;5.27;;;4.03;;
5303;SDS011;2674;49.722;10.892;2024-03-17T13:25:23;9.07;;;4.80;;
5303;SDS011;2674;49.722;10.892;2024-03-17T13:27:51;6.83;;;4.07;;
5303;SDS011;2674;49.722;10.892;2024-03-17T13:30:18;7.00;;;4.70;;
5303;SDS011;2674;49.722;10.892;2024-03-17T13:32:46;6.70;;;5.00;;
5303;SDS011;2674;49.722;10.892;2024-03-17T13:35:17;7.40;;;4.10;;
5303;SDS011;2674;49.722;10.892;2024-03-17T13:37:44;6.73;;;3.83;;
5303;SDS011;2674;49.722;10.892;2024-03-17T13:40:11;5.23;;;4.00;;
5303;SDS011;2674;49.722;10.892;2024-03-17T13:42:40;7.40;;;4.57;;
5303;SDS011;2674;49.722;10.892;2024-03-17T13:45:07;5.80;;;4.37;;
5303;SDS011;2674;49.722;10.892;2024-03-17T13:47:36;5.30;;;4.13;;
5303;SDS011;2674;49.722;10.892;2024-03-17T13:50:02;5.10;;;4.23;;
5303;SDS011;2674;49.722;10.892;2024-03-17T13:52:31;7.37;;;5.13;;
5303;SDS011;2674;49.722;10.892;2024-03-17T13:54:58;5.50;;;4.60;;
5303;SDS011;2674;49.722;10.892;2024-03-17T13:57:24;5.20;;;4.20;;
5303;SDS011;2674;49.722;10.892;2024-03-17T13:59:50;7.37;;;5.10;;
5303;SDS011;2674;49.722;10.892;2024-03-17T14:02:17;5.27;;;4.77;;
5303;SDS011;2674;49.722;10.892;2024-03-17T14:04:43;4.70;;;4.20;;
5303;SDS011;2674;49.722;10.892;2024-03-17T14:07:11;3.90;;;3.60;;
5303;SDS011;2674;49.722;10.892;2024-03-17T14:09:37;5.20;;;4.70;;
5303;SDS011;2674;49.722;10.892;2024-03-17T14:12:03;6.00;;;5.13;;
5303;SDS011;2674;49.722;10.892;2024-03-17T14:14:28;11.80;;;4.53;;
5303;SDS011;2674;49.722;10.892;2024-03-17T14:16:55;9.07;;;4.40;;
5303;SDS011;2674;49.722;10.892;2024-03-17T14:19:21;5.20;;;3.80;;
5303;SDS011;2674;49.722;10.892;2024-03-17T14:21:47;5.60;;;4.97;;
5303;SDS011;2674;49.722;10.892;2024-03-17T14:24:13;8.50;;;5.40;;
5303;SDS011;2674;49.722;10.892;2024-03-17T14:26:38;6.50;;;5.20;;
5303;SDS011;2674;49.722;10.892;2024-03-17T14:29:04;5.93;;;4.00;;
5303;SDS011;2674;49.722;10.892;2024-03-17T14:31:33;5.00;;;4.60;;
5303;SDS011;2674;49.722;10.892;2024-03-17T14:34:02;8.70;;;4.93;;
5303;SDS011;2674;49.722;10.892;2024-03-17T14:36:31;9.80;;;5.60;;
5303;SDS011;2674;49.722;10.892;2024-03-17T14:38:58;8.80;;;6.43;;
5303;SDS011;2674;49.722;10.892;2024-03-17T14:41:27;5.30;;;4.43;;
5303;SDS011;2674;49.722;10.892;2024-03-17T14:43:54;4.50;;;3.70;;
5303;SDS011;2674;49.722;10.892;2024-03-17T14:46:21;6.23;;;3.83;;
5303;SDS011;2674;49.722;10.892;2024-03-17T14:48:46;5.37;;;4.10;;
5303;SDS011;2674;49.722;10.892;2024-03-17T14:51:12;4.47;;;4.00;;
5303;SDS011;2674;49.722;10.892;2024-03-17T14:53:38;7.13;;;4.90;;
5303;SDS011;2674;49.722;10.892;2024-03-17T14:56:13;4.57;;;4.17;;
5303;SDS011;2674;49.722;10.892;2024-03-17T14:58:41;5.50;;;4.00;;
5303;SDS011;2674;49.722;10.892;2024-03-17T15:01:07;7.87;;;4.83;;
5303;SDS011;2674;49.722;10.892;2024-03-17T15:03:34;5.77;;;3.50;;
5303;SDS011;2674;49.722;10.892;2024-03-17T15:06:00;6.43;;;4.07;;
5303;SDS011;2674;49.722;10.892;2024-03-17T15:08:29;5.00;;;4.10;;
5303;SDS011;2674;49.722;10.892;2024-03-17T15:10:55;6.67;;;4.30;;
5303;SDS011;2674;49.722;10.892;2024-03-17T15:13:21;5.07;;;4.07;;
5303;SDS011;2674;49.722;10.892;2024-03-17T15:15:48;6.30;;;5.13;;
5303;SDS011;2674;49.722;10.892;2024-03-17T15:18:15;6.03;;;4.50;;
5303;SDS011;2674;49.722;10.892;2024-03-17T15:20:43;7.47;;;6.00;;
5303;SDS011;2674;49.722;10.892;2024-03-17T15:23:09;6.60;;;4.50;;